Time;durP1;ratioP1;P1;durP2;ratioP2;P2;SDS_P1;SDS_P2;PMS_P1;PMS_P2;Temp;Humidity;BMP_temperature;BMP_pressure;BME280_temperature;BME280_humidity;BME280_pressure;Samples;Min_cycle;Max_cycle;Signal;HPM_P1;HPM_P2
2022/01/27 00:03:26;;;;;;;11.38;6.82;;;;;;;5.16;100.00;102218.38;5025609;28;20041;-76
2022/01/27 00:05:55;;;;;;;17.95;7.35;;;;;;;5.13;100.00;102195.00;5028526;28;20139;-76
2022/01/27 00:08:28;;;;;;;16.10;6.50;;;;;;;5.19;100.00;102210.38;5094459;28;20047;-76
2022/01/27 00:13:30;;;;;;;15.98;7.95;;;;;;;5.13;100.00;102187.16;5100138;28;20024;-76
2022/01/27 00:16:11;;;;;;;21.52;7.78;;;;;;;5.17;100.00;102196.53;5088093;28;20336;-76
2022/01/27 00:18:36;;;;;;;17.58;8.55;;;;;;;5.16;100.00;102184.38;5074910;28;20077;-76
2022/01/27 00:21:02;;;;;;;17.95;8.13;;;;;;;5.05;100.00;102150.06;5093029;28;20462;-76
2022/01/27 00:23:27;;;;;;;19.13;8.82;;;;;;;5.16;100.00;102166.03;5106142;28;20507;-76
2022/01/27 00:25:53;;;;;;;21.27;9.20;;;;;;;4.99;100.00;102132.97;5087102;28;20493;-76
2022/01/27 00:28:18;;;;;;;21.02;8.60;;;;;;;5.12;100.00;102154.09;5072462;28;20051;-76
2022/01/27 00:30:43;;;;;;;20.77;10.13;;;;;;;5.09;100.00;102138.53;5090447;28;20050;-76
2022/01/27 00:33:09;;;;;;;18.63;9.15;;;;;;;5.10;100.00;102141.06;5082619;28;20058;-76
2022/01/27 00:35:34;;;;;;;20.48;8.75;;;;;;;5.08;100.00;102129.00;5103918;28;20086;-77
2022/01/27 00:38:01;;;;;;;14.00;7.53;;;;;;;5.06;100.00;102136.09;5105600;28;20031;-76
2022/01/27 00:40:27;;;;;;;18.40;8.13;;;;;;;4.92;100.00;102100.19;5086405;28;20020;-76
2022/01/27 00:42:53;;;;;;;16.67;7.28;;;;;;;4.97;100.00;102119.09;5080346;28;20051;-76
2022/01/27 00:45:18;;;;;;;19.65;8.13;;;;;;;5.03;100.00;102147.56;5082718;28;20043;-76
2022/01/27 00:47:44;;;;;;;19.55;8.43;;;;;;;5.01;100.00;102152.03;5104704;28;20032;-77
2022/01/27 00:50:09;;;;;;;21.45;9.02;;;;;;;5.04;100.00;102145.78;5103015;28;20036;-76
2022/01/27 00:52:42;;;;;;;25.88;8.48;;;;;;;5.00;100.00;102128.56;5082666;28;20593;-76
2022/01/27 00:55:10;;;;;;;26.85;10.13;;;;;;;5.02;100.00;102130.16;5074011;28;20085;-76
2022/01/27 00:57:51;;;;;;;18.13;8.55;;;;;;;4.99;100.00;102116.38;5086145;28;20115;-76
2022/01/27 01:00:25;;;;;;;20.90;8.40;;;;;;;4.94;100.00;102104.44;5095801;28;20063;-76
2022/01/27 01:03:23;;;;;;;19.40;9.02;;;;;;;4.72;100.00;102072.47;5101386;28;20047;-76
2022/01/27 01:09:11;;;;;;;19.77;8.93;;;;;;;4.82;100.00;102089.38;5102633;28;20357;-76
2022/01/27 01:15:56;;;;;;;23.85;9.70;;;;;;;4.80;100.00;102079.94;5078457;28;20039;-76
2022/01/27 01:34:22;;;;;;;18.27;8.30;;;;;;;4.56;99.43;102055.94;5101538;28;20044;-76
2022/01/27 01:37:00;;;;;;;18.42;10.20;;;;;;;4.53;99.41;102044.72;5080100;28;20047;-76
2022/01/27 01:39:34;;;;;;;18.45;8.70;;;;;;;4.54;99.33;102066.47;5105413;28;20030;-77
2022/01/27 01:42:02;;;;;;;17.85;9.10;;;;;;;4.56;99.17;102067.22;5095989;28;20031;-76
2022/01/27 01:44:28;;;;;;;21.83;8.65;;;;;;;4.57;99.27;102075.91;5099931;28;20023;-76
2022/01/27 01:46:54;;;;;;;20.85;10.27;;;;;;;4.58;99.36;102069.78;5072152;28;20028;-76
2022/01/27 01:49:22;;;;;;;23.20;11.13;;;;;;;4.58;99.09;102069.78;5104318;28;20042;-76
2022/01/27 01:51:49;;;;;;;17.63;8.75;;;;;;;4.63;98.87;102052.06;5083892;28;20402;-76
2022/01/27 01:54:15;;;;;;;25.00;10.55;;;;;;;4.63;99.13;102041.59;5097850;28;20027;-76
2022/01/27 01:56:42;;;;;;;18.42;10.27;;;;;;;4.47;98.35;102003.19;5096536;28;20173;-76
2022/01/27 01:59:09;;;;;;;22.23;10.25;;;;;;;4.59;98.66;102022.59;5104697;28;20032;-76
2022/01/27 02:01:35;;;;;;;24.77;11.73;;;;;;;4.59;98.96;102019.97;5093467;28;20123;-76
2022/01/27 02:04:06;;;;;;;23.55;10.93;;;;;;;4.55;98.48;102034.16;5098538;28;20028;-76
2022/01/27 02:06:50;;;;;;;27.10;11.80;;;;;;;4.52;98.64;102022.09;5102328;28;20040;-76
2022/01/27 02:19:57;;;;;;;20.73;11.50;;;;;;;4.58;97.88;101993.94;5102942;28;20054;-76
2022/01/27 02:22:23;;;;;;;23.92;10.73;;;;;;;4.63;98.12;102005.00;5085195;28;20024;-76
2022/01/27 02:24:50;;;;;;;28.00;12.13;;;;;;;4.61;98.19;101999.84;5101843;28;20487;-76
2022/01/27 02:27:17;;;;;;;22.42;10.10;;;;;;;4.66;98.07;101996.97;5102865;28;20028;-76
2022/01/27 02:29:44;;;;;;;28.42;11.93;;;;;;;4.64;98.00;101994.44;5096974;28;20032;-76
2022/01/27 02:32:11;;;;;;;24.35;11.25;;;;;;;4.65;97.84;102003.13;5100002;28;20434;-76
2022/01/27 02:34:37;;;;;;;21.67;10.48;;;;;;;4.65;97.90;101987.44;5098639;28;20031;-76
2022/01/27 02:37:03;;;;;;;26.58;12.35;;;;;;;4.57;97.13;101982.63;5083244;28;20047;-76
2022/01/27 02:39:28;;;;;;;23.52;11.15;;;;;;;4.74;97.61;101992.16;5066452;28;20114;-76
2022/01/27 02:42:16;;;;;;;20.42;9.85;;;;;;;4.71;97.22;101994.97;5080612;28;20111;-76
2022/01/27 02:44:54;;;;;;;18.77;9.32;;;;;;;4.74;97.24;101966.00;5095197;28;20016;-76
2022/01/27 02:47:21;;;;;;;27.42;12.63;;;;;;;4.81;97.06;101980.44;5095788;28;20027;-76
2022/01/27 02:49:47;;;;;;;23.40;10.48;;;;;;;4.84;96.86;101980.28;5072890;28;20543;-77
2022/01/27 02:52:12;;;;;;;20.52;10.15;;;;;;;4.81;97.58;101977.81;5083743;28;20162;-77
2022/01/27 02:54:38;;;;;;;24.00;10.88;;;;;;;4.73;97.02;101956.50;5075316;28;20119;-76
2022/01/27 02:57:04;;;;;;;22.77;11.00;;;;;;;4.88;97.68;101979.19;5099902;28;20023;-76
2022/01/27 02:59:29;;;;;;;20.23;10.38;;;;;;;4.89;97.29;101975.63;5098047;28;20514;-76
2022/01/27 03:01:55;;;;;;;27.27;10.88;;;;;;;4.89;97.04;101965.16;5077610;28;20027;-76
2022/01/27 03:04:22;;;;;;;26.75;12.75;;;;;;;4.89;97.13;101952.09;5098264;28;20050;-76
2022/01/27 03:06:48;;;;;;;21.63;10.38;;;;;;;4.87;97.58;101946.09;5078257;28;20035;-76
2022/01/27 03:09:14;;;;;;;29.77;12.90;;;;;;;4.87;98.13;101940.84;5098687;28;20024;-76
2022/01/27 03:11:47;;;;;;;18.77;10.65;;;;;;;4.82;98.73;101934.22;5102539;28;20024;-77
2022/01/27 03:14:15;;;;;;;26.27;13.93;;;;;;;4.74;99.21;101945.09;5089643;28;20038;-76
2022/01/27 03:16:41;;;;;;;22.80;11.60;;;;;;;4.83;99.21;101957.66;5081900;28;20506;-76
2022/01/27 03:19:06;;;;;;;23.52;12.48;;;;;;;4.80;98.92;101943.91;5102124;28;20103;-78
2022/01/27 03:21:32;;;;;;;23.83;10.55;;;;;;;4.84;99.17;101942.81;5070701;28;20034;-79
2022/01/27 03:23:57;;;;;;;28.83;10.70;;;;;;;4.89;98.56;101938.16;5064627;28;20093;-78
2022/01/27 03:26:26;;;;;;;33.40;13.43;;;;;;;4.78;98.77;101922.25;5084509;28;20028;-77
2022/01/27 03:28:51;;;;;;;20.85;11.05;;;;;;;4.87;98.67;101919.94;5079086;28;20020;-76
2022/01/27 03:31:17;;;;;;;23.35;9.45;;;;;;;4.87;98.61;101930.41;5095635;28;20028;-76
2022/01/27 03:33:43;;;;;;;33.53;12.57;;;;;;;4.79;98.72;101916.06;5080155;28;20047;-75
2022/01/27 03:36:09;;;;;;;26.55;12.30;;;;;;;4.79;98.39;101893.38;5078272;28;20055;-76
2022/01/27 03:38:34;;;;;;;23.95;10.80;;;;;;;4.92;98.25;101911.81;5066889;28;20048;-76
2022/01/27 03:41:05;;;;;;;20.75;10.40;;;;;;;4.94;98.67;101900.38;5099717;27;20126;-77
2022/01/27 03:43:30;;;;;;;18.00;9.43;;;;;;;4.98;98.34;101895.78;5097352;28;20028;-77
2022/01/27 03:45:56;;;;;;;28.48;11.32;;;;;;;4.96;98.37;101895.03;5103283;28;20548;-76
2022/01/27 03:48:21;;;;;;;27.95;9.82;;;;;;;4.97;98.69;101899.34;5099611;28;20441;-76
2022/01/27 03:50:46;;;;;;;25.35;10.50;;;;;;;4.93;98.66;101882.97;5098928;28;20036;-76
2022/01/27 03:53:14;;;;;;;23.58;11.38;;;;;;;4.96;98.74;101884.56;5080409;28;20032;-76
2022/01/27 03:55:39;;;;;;;24.48;11.07;;;;;;;5.00;98.82;101877.38;5081248;28;20019;-76
2022/01/27 03:58:04;;;;;;;24.77;11.20;;;;;;;4.93;98.79;101854.19;5097560;28;20035;-76
2022/01/27 04:00:30;;;;;;;22.83;11.50;;;;;;;5.00;98.76;101873.00;5083228;28;20142;-77
2022/01/27 04:05:33;;;;;;;;;;;;;;;5.03;99.09;101869.34;5082565;28;20055;-77
2022/01/27 04:07:58;;;;;;;22.48;9.68;;;;;;;5.02;98.89;101865.91;5096741;28;19955;-77
2022/01/27 04:10:24;;;;;;;25.05;12.27;;;;;;;5.01;99.32;101858.13;5103277;28;20400;-76
2022/01/27 04:12:50;;;;;;;21.60;9.77;;;;;;;5.06;98.77;101871.81;5066502;28;20031;-76
2022/01/27 04:15:15;;;;;;;26.17;11.05;;;;;;;5.08;99.21;101877.78;5100481;28;20444;-76
2022/01/27 04:17:40;;;;;;;22.60;9.55;;;;;;;5.06;99.13;101871.81;5101204;28;20020;-76
2022/01/27 04:20:06;;;;;;;20.13;9.20;;;;;;;5.08;99.10;101867.31;5098140;28;20369;-76
2022/01/27 04:22:31;;;;;;;24.77;10.30;;;;;;;4.97;99.56;101864.50;5100912;28;20106;-76
2022/01/27 04:24:57;;;;;;;25.35;9.98;;;;;;;5.06;99.50;101861.34;5098769;28;20038;-75
2022/01/27 04:27:29;;;;;;;21.73;10.85;;;;;;;5.09;99.08;101877.69;5079072;28;20024;-76
2022/01/27 04:29:54;;;;;;;22.92;9.90;;;;;;;5.09;99.74;101861.97;5100156;28;20028;-76
2022/01/27 04:32:25;;;;;;;21.17;9.65;;;;;;;5.09;99.94;101864.59;5099918;28;20420;-76
2022/01/27 04:34:53;;;;;;;18.65;9.00;;;;;;;5.02;99.92;101844.97;5079558;28;20084;-76
2022/01/27 04:37:22;;;;;;;21.17;9.18;;;;;;;5.04;100.00;101855.34;5083112;28;20533;-76
2022/01/27 04:40:03;;;;;;;23.10;10.98;;;;;;;5.04;100.00;101850.13;5081531;28;20024;-76
2022/01/27 04:42:43;;;;;;;23.27;9.80;;;;;;;5.10;100.00;101853.22;5079855;28;20089;-76
2022/01/27 04:45:10;;;;;;;22.83;9.23;;;;;;;5.08;100.00;101854.25;5080807;28;20031;-76
2022/01/27 04:47:41;;;;;;;20.45;8.70;;;;;;;4.96;100.00;101840.09;5076827;28;20036;-77
2022/01/27 04:50:07;;;;;;;;;;;;;;;5.08;100.00;101843.78;5098005;28;20028;-77
2022/01/27 04:52:36;;;;;;;20.35;9.23;;;;;;;4.93;100.00;101830.66;5076146;28;19926;-76
2022/01/27 04:55:08;;;;;;;27.88;10.38;;;;;;;5.03;100.00;101849.28;5079979;28;20028;-76
2022/01/27 04:57:36;;;;;;;23.95;10.77;;;;;;;4.96;100.00;101847.94;5098276;28;20040;-76
2022/01/27 05:00:04;;;;;;;22.02;8.88;;;;;;;4.79;100.00;101825.38;5096165;28;20419;-76
2022/01/27 05:02:39;;;;;;;27.17;10.25;;;;;;;4.87;100.00;101835.38;5101128;28;20043;-76
2022/01/27 05:05:05;;;;;;;26.50;11.15;;;;;;;4.82;100.00;101838.28;5096808;28;20044;-76
2022/01/27 05:07:31;;;;;;;31.83;11.43;;;;;;;4.69;100.00;101809.38;5080165;28;20135;-76
2022/01/27 05:10:01;;;;;;;31.75;10.32;;;;;;;4.79;100.00;101825.38;5077529;28;20107;-76
2022/01/27 05:12:42;;;;;;;26.02;10.90;;;;;;;4.66;100.00;101801.72;5096782;27;20036;-75
2022/01/27 05:15:08;;;;;;;29.55;10.68;;;;;;;4.82;100.00;101816.53;5069134;28;20442;-76
2022/01/27 05:17:34;;;;;;;26.77;10.00;;;;;;;4.77;100.00;101811.56;5072190;28;20040;-76
2022/01/27 05:19:59;;;;;;;30.45;10.38;;;;;;;4.80;100.00;101815.75;5081099;28;20052;-76
2022/01/27 05:22:24;;;;;;;30.90;12.48;;;;;;;4.77;100.00;101811.56;5076617;28;20035;-76
2022/01/27 05:24:50;;;;;;;26.23;10.68;;;;;;;4.79;100.00;101816.69;5085898;28;20069;-76
2022/01/27 05:27:16;;;;;;;34.65;11.40;;;;;;;4.80;100.00;101819.22;5077121;28;20012;-76
2022/01/27 05:29:42;;;;;;;29.80;10.90;;;;;;;4.74;100.00;101799.47;5096152;28;20032;-76
2022/01/27 05:32:07;;;;;;;26.08;9.60;;;;;;;4.74;100.00;101804.69;5046963;28;20035;-76
2022/01/27 05:34:33;;;;;;;30.77;10.52;;;;;;;4.81;100.00;101810.41;5079014;28;20031;-75
2022/01/27 05:36:58;;;;;;;27.60;11.15;;;;;;;4.81;100.00;101805.19;5095878;28;20107;-76
2022/01/27 05:39:23;;;;;;;39.08;13.65;;;;;;;4.76;100.00;101802.00;5096090;28;20059;-76
2022/01/27 05:41:49;;;;;;;26.45;9.52;;;;;;;4.75;100.00;101789.88;5096618;27;20027;-76
2022/01/27 05:44:14;;;;;;;26.83;10.55;;;;;;;4.83;100.00;101799.88;5080215;28;20032;-76
2022/01/27 05:46:40;;;;;;;22.35;9.50;;;;;;;4.84;100.00;101815.50;5077812;28;20123;-76
2022/01/27 05:49:05;;;;;;;28.48;11.25;;;;;;;4.83;100.00;101803.31;5075765;28;20020;-77
2022/01/27 05:51:30;;;;;;;28.70;8.85;;;;;;;4.82;100.00;101801.66;5076488;28;20036;-76
2022/01/27 05:53:56;;;;;;;30.50;10.32;;;;;;;4.75;100.00;101776.81;5078320;28;20126;-76
2022/01/27 05:56:21;;;;;;;20.23;9.73;;;;;;;4.84;100.00;101778.88;5098245;28;20132;-75
2022/01/27 05:58:47;;;;;;;21.45;8.45;;;;;;;4.81;100.00;101763.34;5087617;28;20114;-76
2022/01/27 06:01:13;;;;;;;22.77;10.18;;;;;;;4.89;100.00;101768.13;5074759;28;20067;-76
2022/01/27 06:03:38;;;;;;;20.30;8.80;;;;;;;4.93;100.00;101783.56;5092909;28;20027;-76
2022/01/27 06:06:04;;;;;;;21.70;8.15;;;;;;;4.91;100.00;101769.72;5091862;28;20027;-76
2022/01/27 06:08:30;;;;;;;32.65;9.90;;;;;;;4.98;100.00;101779.84;5073040;28;20042;-76
2022/01/27 06:10:56;;;;;;;26.90;9.63;;;;;;;4.88;100.00;101767.31;5074832;28;20030;-76
2022/01/27 06:13:21;;;;;;;27.55;9.52;;;;;;;4.98;100.00;101771.97;5073057;28;20030;-76
2022/01/27 06:15:47;;;;;;;28.70;9.60;;;;;;;4.96;100.00;101777.28;5091544;28;20398;-76
2022/01/27 06:18:12;;;;;;;20.23;9.65;;;;;;;4.87;100.00;101759.53;5091516;28;20550;-76
2022/01/27 06:20:39;;;;;;;22.80;9.23;;;;;;;4.97;100.00;101773.75;5076469;28;20412;-76
2022/01/27 06:23:05;;;;;;;21.60;9.20;;;;;;;4.93;100.00;101760.00;5090791;28;20028;-77
2022/01/27 06:25:30;;;;;;;22.40;8.77;;;;;;;5.01;100.00;101770.03;5076430;28;20568;-77
2022/01/27 06:27:56;;;;;;;26.05;9.57;;;;;;;5.02;100.00;101755.19;5055020;28;20071;-77
2022/01/27 06:30:22;;;;;;;23.35;8.40;;;;;;;5.06;100.00;101757.50;5087073;28;20031;-76
2022/01/27 06:32:47;;;;;;;24.65;9.65;;;;;;;5.04;100.00;101755.94;5087898;28;20236;-76
2022/01/27 06:35:13;;;;;;;19.17;7.95;;;;;;;5.03;100.00;101747.25;5084439;28;21031;-76
2022/01/27 06:37:41;;;;;;;21.23;7.93;;;;;;;5.12;100.00;101758.94;5045298;28;20038;-76
2022/01/27 06:40:07;;;;;;;18.67;8.27;;;;;;;5.13;100.00;101747.50;5087222;28;20332;-77
2022/01/27 06:42:33;;;;;;;19.25;7.25;;;;;;;5.13;100.00;101747.50;5080926;28;20028;-77
2022/01/27 06:44:58;;;;;;;30.10;8.73;;;;;;;4.46;100.00;101638.16;5077818;28;20085;-76
2022/01/27 06:47:23;;;;;;;22.50;8.45;;;;;;;5.17;100.00;101756.03;5053567;28;20476;-76
2022/01/27 06:49:49;;;;;;;19.85;7.20;;;;;;;5.23;100.00;101753.06;5055075;28;20028;-76
2022/01/27 06:52:14;;;;;;;16.52;7.07;;;;;;;5.26;100.00;101752.84;5073754;28;20399;-76
2022/01/27 06:54:40;;;;;;;18.10;7.90;;;;;;;5.26;100.00;101740.59;5091643;28;20521;-76
2022/01/27 06:57:06;;;;;;;15.57;6.72;;;;;;;5.30;100.00;101749.94;5090632;28;20023;-76
2022/01/27 06:59:34;;;;;;;16.77;8.60;;;;;;;5.23;100.00;101732.94;5062752;28;20031;-76
2022/01/27 07:02:00;;;;;;;21.05;9.00;;;;;;;5.33;100.00;101744.56;5081960;28;20031;-77
2022/01/27 07:04:25;;;;;;;24.33;8.73;;;;;;;5.16;100.00;101721.16;5097899;28;20380;-78
2022/01/27 07:06:52;;;;;;;23.38;8.45;;;;;;;5.33;100.00;101749.78;5077091;28;20539;-77
2022/01/27 07:09:18;;;;;;;26.63;9.73;;;;;;;5.28;100.00;101736.13;5080065;28;20539;-76
2022/01/27 07:11:44;;;;;;;19.95;7.47;;;;;;;5.41;100.00;101751.09;5068106;28;20035;-77
2022/01/27 07:14:09;;;;;;;16.90;6.63;;;;;;;5.37;100.00;101763.50;5098930;28;20333;-77
2022/01/27 07:16:35;;;;;;;19.13;7.30;;;;;;;5.23;100.00;101727.72;5097003;28;20124;-76
2022/01/27 07:19:00;;;;;;;15.95;7.25;;;;;;;5.40;100.00;101752.88;5063982;28;20038;-76
2022/01/27 07:21:26;;;;;;;11.52;6.53;;;;;;;5.43;100.00;101754.44;5083866;28;20016;-76
2022/01/27 07:23:51;;;;;;;14.52;7.15;;;;;;;5.43;100.00;101736.13;5098614;28;20040;-76
2022/01/27 07:26:17;;;;;;;22.30;8.10;;;;;;;5.48;100.00;101750.59;5083514;28;20038;-75
2022/01/27 07:28:42;;;;;;;16.80;7.20;;;;;;;5.50;100.00;101745.28;5100952;28;20027;-76
2022/01/27 07:31:08;;;;;;;22.27;8.50;;;;;;;5.54;100.00;101752.00;5099821;28;20122;-77
2022/01/27 07:33:33;;;;;;;24.38;8.20;;;;;;;5.52;100.00;101752.09;5099567;28;20785;-75
2022/01/27 07:35:58;;;;;;;14.35;6.68;;;;;;;5.58;100.00;101753.50;5096595;28;20484;-75
2022/01/27 07:38:26;;;;;;;22.70;7.45;;;;;;;5.62;100.00;101755.00;5063175;28;20113;-75
2022/01/27 07:40:51;;;;;;;22.02;7.90;;;;;;;5.61;100.00;101752.47;5080654;27;20035;-75
2022/01/27 07:43:17;;;;;;;16.77;6.68;;;;;;;5.48;100.00;101731.44;5079019;28;20052;-75
2022/01/27 07:45:42;;;;;;;24.30;7.57;;;;;;;5.63;100.00;101746.19;5093745;28;20103;-75
2022/01/27 07:48:08;;;;;;;16.58;6.07;;;;;;;5.70;100.00;101752.72;5081232;28;20038;-76
2022/01/27 07:50:34;;;;;;;15.68;6.88;;;;;;;5.72;100.00;101750.00;5076217;28;20439;-77
2022/01/27 07:53:00;;;;;;;13.13;6.60;;;;;;;5.80;100.00;101752.16;5078876;28;20031;-76
2022/01/27 07:55:26;;;;;;;11.27;5.82;;;;;;;5.71;100.00;101733.47;5082142;28;20503;-76
2022/01/27 07:57:51;;;;;;;18.02;6.95;;;;;;;5.87;100.00;101748.22;5083492;28;20035;-76
2022/01/27 08:00:17;;;;;;;18.58;7.38;;;;;;;5.85;100.00;101744.84;5080241;28;20048;-76
2022/01/27 08:02:43;;;;;;;22.15;6.70;;;;;;;5.86;100.00;101743.91;5080008;28;20479;-77
2022/01/27 08:05:09;;;;;;;21.13;7.13;;;;;;;5.87;100.00;101741.19;5064754;28;20028;-77
2022/01/27 08:07:34;;;;;;;16.80;6.10;;;;;;;5.89;100.00;101733.22;5083626;28;20077;-77
2022/01/27 08:10:00;;;;;;;22.33;6.90;;;;;;;6.02;100.00;101746.44;5067547;28;20057;-76
2022/01/27 08:12:25;;;;;;;21.42;6.32;;;;;;;6.08;100.00;101749.50;5099405;27;20445;-76
2022/01/27 08:14:51;;;;;;;13.75;5.72;;;;;;;6.08;100.00;101752.13;5099036;28;20023;-77
2022/01/27 08:17:17;;;;;;;23.90;5.90;;;;;;;6.12;100.00;101747.53;5080155;28;20032;-76
2022/01/27 08:19:43;;;;;;;15.85;5.55;;;;;;;5.85;100.00;101698.53;5101637;28;20039;-76
2022/01/27 08:22:10;;;;;;;21.60;6.22;;;;;;;6.06;100.00;101732.19;5097414;28;20112;-76
2022/01/27 08:24:36;;;;;;;18.48;5.75;;;;;;;6.21;100.00;101746.91;5065092;28;20046;-76
2022/01/27 08:27:04;;;;;;;15.60;5.50;;;;;;;6.25;100.00;101748.41;5062021;28;20496;-76
2022/01/27 08:29:36;;;;;;;16.13;4.82;;;;;;;6.29;100.00;101747.28;5079791;28;20396;-76
2022/01/27 08:32:02;;;;;;;18.98;5.60;;;;;;;6.34;100.00;101746.97;5096492;28;20523;-76
2022/01/27 08:34:39;;;;;;;25.40;6.72;;;;;;;6.36;100.00;101745.09;5098371;28;20020;-76
2022/01/27 08:37:11;;;;;;;14.02;4.47;;;;;;;6.37;100.00;101733.66;5078723;28;20067;-76
2022/01/27 08:39:36;;;;;;;18.13;4.28;;;;;;;6.33;100.00;101729.53;5095810;28;20480;-76
2022/01/27 08:42:03;;;;;;;21.42;5.55;;;;;;;6.36;100.00;101727.56;5099817;27;20038;-76
2022/01/27 08:44:28;;;;;;;12.07;4.20;;;;;;;6.44;100.00;101752.44;5077511;28;20063;-76
2022/01/27 08:46:54;;;;;;;10.82;4.28;;;;;;;6.33;100.00;101730.38;5095383;28;20055;-77
2022/01/27 08:49:23;;;;;;;17.75;4.90;;;;;;;6.30;100.00;101720.09;5062024;28;20032;-77
2022/01/27 08:51:48;;;;;;;23.27;5.18;;;;;;;6.44;100.00;101741.94;5079367;28;20039;-77
2022/01/27 08:54:14;;;;;;;16.30;4.15;;;;;;;6.50;100.00;101757.28;5074588;28;20038;-77
2022/01/27 08:56:40;;;;;;;15.32;4.20;;;;;;;6.42;100.00;101736.78;5076297;28;20027;-77
2022/01/27 08:59:05;;;;;;;10.75;4.13;;;;;;;6.46;100.00;101738.28;5079679;28;20475;-77
2022/01/27 09:01:31;;;;;;;23.63;5.85;;;;;;;6.54;100.00;101749.09;5076684;28;20105;-77
2022/01/27 09:03:58;;;;;;;16.60;4.72;;;;;;;6.39;100.00;101723.91;5079897;28;20092;-76
2022/01/27 09:06:23;;;;;;;18.17;4.07;;;;;;;6.61;100.00;101753.94;5077604;28;20024;-76
2022/01/27 09:08:50;;;;;;;14.35;3.72;;;;;;;6.57;100.00;101742.81;5061500;28;20031;-76
2022/01/27 09:11:16;;;;;;;17.55;4.57;;;;;;;6.65;100.00;101744.94;5098623;27;20024;-76
2022/01/27 09:13:42;;;;;;;14.35;3.92;;;;;;;6.68;100.00;101744.72;5061444;28;20085;-76
2022/01/27 09:16:09;;;;;;;15.52;4.10;;;;;;;6.70;100.00;101759.41;5074318;28;20039;-76
2022/01/27 09:18:34;;;;;;;14.63;4.70;;;;;;;6.74;100.00;101746.94;5077570;28;20020;-76
2022/01/27 09:21:01;;;;;;;14.57;3.28;;;;;;;6.79;100.00;101752.69;5076539;28;20031;-76
2022/01/27 09:23:27;;;;;;;18.95;4.65;;;;;;;6.76;100.00;101742.44;5094529;28;20024;-76
2022/01/27 09:26:00;;;;;;;14.55;4.18;;;;;;;6.73;100.00;101747.91;5064867;28;20034;-76
2022/01/27 09:28:26;;;;;;;16.55;4.25;;;;;;;6.87;100.00;101750.41;5093424;28;20511;-76
2022/01/27 09:30:51;;;;;;;17.40;4.50;;;;;;;6.81;100.00;101745.56;5072367;28;20119;-76
2022/01/27 09:33:17;;;;;;;21.38;3.38;;;;;;;6.86;100.00;101734.75;5078294;28;20034;-78
2022/01/27 09:35:42;;;;;;;13.13;4.10;;;;;;;6.98;100.00;101757.56;5076133;28;20026;-77
2022/01/27 09:38:08;;;;;;;15.70;3.72;;;;;;;6.91;100.00;101745.81;5081469;28;20031;-76
2022/01/27 09:40:34;;;;;;;8.40;2.80;;;;;;;7.04;100.00;101753.69;5055247;28;20038;-77
2022/01/27 09:43:02;;;;;;;19.50;3.80;;;;;;;7.09;100.00;101764.69;5076345;28;20402;-77
2022/01/27 09:45:29;;;;;;;11.13;2.88;;;;;;;7.11;100.00;101768.06;5095568;28;20546;-76
2022/01/27 09:47:59;;;;;;;12.07;2.90;;;;;;;7.15;100.00;101775.63;5080232;28;20110;-76
2022/01/27 09:52:58;;;;;;;18.92;3.35;;;;;;;7.26;100.00;101777.50;5091645;28;20157;-76
2022/01/27 09:55:24;;;;;;;26.42;3.80;;;;;;;7.21;100.00;101754.19;5079578;28;20346;-76
2022/01/27 09:57:53;;;;;;;8.80;2.17;;;;;;;7.35;100.00;101782.13;5057195;28;20020;-77
2022/01/27 10:00:20;;;;;;;11.45;2.85;;;;;;;7.38;100.00;101775.81;5096457;28;20082;-76
2022/01/27 10:03:13;;;;;;;12.63;2.55;;;;;;;7.52;100.00;101782.75;5076144;28;20059;-77
2022/01/27 10:05:40;;;;;;;12.68;3.15;;;;;;;7.59;100.00;101778.75;5089980;28;20039;-76
2022/01/27 10:08:16;;;;;;;9.20;2.47;;;;;;;7.64;100.00;101781.88;5097594;28;20020;-77
2022/01/27 10:10:46;;;;;;;20.35;3.20;;;;;;;7.66;100.00;101787.03;5097483;28;20024;-77
2022/01/27 10:13:31;;;;;;;10.77;2.25;;;;;;;7.63;100.00;101778.41;5079411;28;20257;-77
2022/01/27 10:15:56;;;;;;;11.57;2.03;;;;;;;7.69;100.00;101787.66;5099084;28;20506;-77
2022/01/27 10:18:25;;;;;;;7.00;2.50;;;;;;;7.74;100.00;101782.09;5098976;28;20047;-76
2022/01/27 10:21:03;;;;;;;10.82;2.00;;;;;;;7.74;100.00;101789.97;5069613;28;20023;-76
2022/01/27 10:23:35;;;;;;;15.68;2.47;;;;;;;7.68;100.00;101778.09;5097968;28;20023;-76
2022/01/27 10:26:13;;;;;;;;;;;;;;;7.72;100.00;101794.50;5086587;28;20088;-77
2022/01/27 10:29:28;;;;;;;12.88;2.47;;;;;;;7.59;100.00;101771.69;5103287;28;20364;-77
2022/01/27 10:31:38;;;;;;;9.10;2.03;;;;;;;7.73;100.00;101786.50;5100050;28;20514;-76
2022/01/27 10:34:06;;;;;;;14.68;3.30;;;;;;;7.65;100.00;101778.31;5083388;28;20120;-77
2022/01/27 10:36:40;;;;;;;10.38;2.50;;;;;;;7.78;100.00;101801.94;5090411;28;20475;-77
2022/01/27 10:39:08;;;;;;;15.77;2.80;;;;;;;7.90;100.00;101798.44;5103566;28;20023;-76
2022/01/27 10:41:36;;;;;;;11.57;2.58;;;;;;;7.99;100.00;101797.78;5082220;28;20030;-76
2022/01/27 10:44:15;;;;;;;16.17;3.42;;;;;;;7.90;100.00;101781.81;5085670;28;20027;-76
2022/01/27 10:46:59;;;;;;;16.15;3.10;;;;;;;8.03;100.00;101798.38;5087001;28;20028;-76
2022/01/27 10:49:29;;;;;;;13.07;2.95;;;;;;;8.10;100.00;101802.28;5088037;28;20043;-76
2022/01/27 10:51:56;;;;;;;13.90;4.57;;;;;;;7.96;100.00;101781.38;5083113;28;20028;-76
2022/01/27 10:54:38;;;;;;;11.90;2.75;;;;;;;8.10;100.00;101798.78;5101426;28;20031;-76
2022/01/27 10:57:07;;;;;;;9.60;2.42;;;;;;;8.19;100.00;101795.53;5095440;28;20464;-76
2022/01/27 10:59:34;;;;;;;12.02;2.25;;;;;;;8.21;100.00;101802.34;5103643;28;20069;-76
2022/01/27 11:02:06;;;;;;;12.38;3.00;;;;;;;8.29;100.00;101798.31;5105563;28;20476;-76
2022/01/27 11:04:34;;;;;;;11.07;2.53;;;;;;;8.43;100.00;101803.44;5101937;28;20540;-76
2022/01/27 11:07:02;;;;;;;9.55;2.90;;;;;;;8.43;100.00;101811.34;5099461;28;20317;-76
2022/01/27 11:09:33;;;;;;;13.73;2.78;;;;;;;8.40;100.00;101799.22;5082031;28;20020;-76
2022/01/27 11:11:59;;;;;;;13.35;2.20;;;;;;;8.30;100.00;101782.41;5103611;27;20561;-76
2022/01/27 11:14:25;;;;;;;12.18;2.72;;;;;;;8.42;100.00;101793.84;5081275;28;20021;-76
2022/01/27 11:16:56;;;;;;;25.20;2.67;;;;;;;8.44;100.00;101805.94;5079802;28;20105;-76
2022/01/27 11:21:56;;;;;;;12.90;2.40;;;;;;;8.40;100.00;101801.84;5104871;28;20031;-76
2022/01/27 11:24:30;;;;;;;12.57;2.58;;;;;;;8.37;100.00;101774.91;5083726;28;20063;-77
2022/01/27 11:26:58;;;;;;;10.02;2.78;;;;;;;8.51;100.00;101805.50;5104416;28;20517;-77
2022/01/27 11:29:26;;;;;;;14.77;2.47;;;;;;;8.49;100.00;101808.22;5099799;28;20479;-76
2022/01/27 11:31:57;;;;;;;12.48;2.63;;;;;;;8.50;100.00;101804.66;5097158;28;20437;-77
2022/01/27 11:34:22;;;;;;;14.13;3.42;;;;;;;8.44;100.00;101791.94;5082441;28;20805;-77
2022/01/27 11:37:06;;;;;;;14.73;3.45;;;;;;;8.51;100.00;101792.34;5093392;28;20035;-77
2022/01/27 11:39:53;;;;;;;11.77;2.45;;;;;;;8.48;100.00;101792.56;5085848;28;20084;-76
2022/01/27 11:42:34;;;;;;;14.05;2.47;;;;;;;8.53;100.00;101796.53;5094804;27;20387;-77
2022/01/27 11:45:27;;;;;;;13.23;2.00;;;;;;;8.57;100.00;101808.50;5102842;28;20028;-77
2022/01/27 11:47:58;;;;;;;19.35;2.85;;;;;;;8.55;100.00;101807.78;5104467;28;20019;-77
2022/01/27 11:50:37;;;;;;;11.35;2.60;;;;;;;8.35;100.00;101777.66;5082677;28;20058;-77
2022/01/27 11:53:04;;;;;;;13.40;2.28;;;;;;;8.46;100.00;101790.03;5096114;28;20028;-76
2022/01/27 11:55:33;;;;;;;10.48;3.40;;;;;;;8.47;100.00;101797.00;5100097;28;20518;-76
2022/01/27 11:58:00;;;;;;;15.45;3.13;;;;;;;8.60;100.00;101803.03;5100992;28;20481;-76
2022/01/27 12:00:28;;;;;;;16.98;3.20;;;;;;;8.65;100.00;101793.00;5081811;28;20455;-76
2022/01/27 12:02:57;;;;;;;16.25;3.35;;;;;;;8.65;100.00;101793.00;5098049;28;20070;-76
2022/01/27 12:05:27;;;;;;;11.68;2.42;;;;;;;8.73;99.96;101796.84;5105052;28;20032;-76
2022/01/27 12:08:17;;;;;;;12.05;2.28;;;;;;;8.75;100.00;101802.84;5103545;28;20027;-76